createdAt,value
2023-03-15T00:00:18.492Z,15.20
2023-03-15T00:02:57.968Z,15.15
2023-03-15T00:05:27.153Z,10.50
2023-03-15T00:07:57.319Z,9.13
2023-03-15T00:10:34.134Z,11.13
2023-03-15T00:13:01.646Z,12.15
2023-03-15T00:18:14.573Z,16.90
2023-03-15T00:20:43.820Z,15.18
2023-03-15T00:23:13.926Z,11.40
2023-03-15T00:25:48.560Z,13.23
2023-03-15T00:28:19.285Z,11.13
2023-03-15T00:31:10.716Z,12.75
2023-03-15T00:33:49.928Z,14.18
2023-03-15T00:39:02.530Z,10.02
2023-03-15T00:41:38.308Z,13.55
2023-03-15T00:44:05.186Z,8.73
2023-03-15T00:46:34.499Z,12.25
2023-03-15T00:49:07.314Z,8.75
2023-03-15T00:54:25.668Z,12.77
2023-03-15T00:56:56.414Z,12.40
2023-03-15T01:01:55.448Z,19.10
2023-03-15T01:04:51.850Z,14.50
2023-03-15T01:07:23.290Z,10.68
2023-03-15T01:09:50.434Z,5.32
2023-03-15T01:12:17.844Z,12.05
2023-03-15T01:14:51.588Z,8.35
2023-03-15T01:17:22.784Z,12.20
2023-03-15T01:19:54.136Z,14.27
2023-03-15T01:22:27.665Z,9.50
2023-03-15T01:24:58.153Z,10.35
2023-03-15T01:30:00.045Z,10.18
2023-03-15T01:33:07.464Z,7.70
2023-03-15T01:38:37.563Z,9.95
2023-03-15T01:41:31.794Z,8.95
2023-03-15T01:44:12.917Z,14.80
2023-03-15T01:46:43.728Z,10.63
2023-03-15T01:49:29.171Z,10.15
2023-03-15T01:52:14.549Z,10.90
2023-03-15T01:55:03.649Z,10.13
2023-03-15T01:57:43.473Z,8.18
2023-03-15T02:00:25.179Z,11.80
2023-03-15T02:03:07.229Z,9.63
2023-03-15T02:05:49.340Z,13.13
2023-03-15T02:08:27.067Z,9.57
2023-03-15T02:11:01.612Z,13.13
2023-03-15T02:13:44.472Z,11.27
2023-03-15T02:19:40.464Z,14.95
2023-03-15T02:22:30.514Z,9.23
2023-03-15T02:25:14.336Z,5.13
2023-03-15T02:27:42.538Z,14.20
2023-03-15T02:30:32.507Z,5.75
2023-03-15T02:33:02.243Z,12.98
2023-03-15T02:35:32.749Z,8.15
2023-03-15T02:38:00.672Z,9.77
2023-03-15T02:40:29.809Z,11.90
2023-03-15T02:43:05.469Z,11.65
2023-03-15T02:45:45.212Z,9.32
2023-03-15T02:48:20.755Z,10.15
2023-03-15T02:53:45.620Z,12.02
2023-03-15T02:56:14.440Z,9.30
2023-03-15T02:59:01.148Z,5.45
2023-03-15T03:01:30.357Z,13.02
2023-03-15T03:04:07.538Z,7.68
2023-03-15T03:09:20.175Z,6.43
2023-03-15T03:11:51.175Z,8.23
2023-03-15T03:14:21.666Z,7.30
2023-03-15T03:16:48.602Z,4.70
2023-03-15T03:19:15.483Z,8.73
2023-03-15T03:24:29.775Z,12.25
2023-03-15T03:27:03.878Z,8.27
2023-03-15T03:29:34.614Z,6.55
2023-03-15T03:32:04.377Z,8.98
2023-03-15T03:34:43.683Z,11.38
2023-03-15T03:37:20.324Z,4.97
2023-03-15T03:39:55.412Z,3.95
2023-03-15T03:42:30.470Z,7.25
2023-03-15T03:45:00.265Z,7.68
2023-03-15T03:50:33.614Z,9.02
2023-03-15T03:53:06.487Z,11.95
2023-03-15T03:55:41.661Z,9.80
2023-03-15T03:58:17.831Z,9.20
2023-03-15T04:00:47.534Z,9.05
2023-03-15T04:03:17.720Z,8.57
2023-03-15T04:05:47.122Z,5.90
2023-03-15T04:08:13.819Z,8.52
2023-03-15T04:10:41.351Z,10.63
2023-03-15T04:13:10.557Z,9.95
2023-03-15T04:18:27.583Z,8.18
2023-03-15T04:21:00.156Z,9.63
2023-03-15T04:26:11.972Z,11.70
2023-03-15T04:28:46.787Z,9.00
2023-03-15T04:31:15.284Z,8.60
2023-03-15T04:33:44.813Z,7.63
2023-03-15T04:36:23.789Z,10.15
2023-03-15T04:38:55.477Z,6.47
2023-03-15T04:41:25.507Z,8.07
2023-03-15T04:44:12.084Z,8.68
2023-03-15T04:46:48.721Z,9.85
2023-03-15T04:52:09.911Z,9.02
2023-03-15T04:54:37.882Z,6.15
2023-03-15T04:57:06.127Z,6.35
2023-03-15T04:59:40.560Z,6.80
2023-03-15T05:04:58.258Z,7.13
2023-03-15T05:07:46.777Z,5.88
2023-03-15T05:10:18.935Z,7.45
2023-03-15T05:13:20.152Z,7.47
2023-03-15T05:16:22.740Z,8.07
2023-03-15T05:18:50.189Z,8.48
2023-03-15T05:21:17.797Z,7.03
2023-03-15T05:23:47.790Z,9.02
2023-03-15T05:26:22.903Z,9.80
2023-03-15T05:28:53.657Z,8.68
2023-03-15T05:31:24.168Z,6.93
2023-03-15T05:33:55.257Z,9.13
2023-03-15T05:36:22.952Z,5.85
2023-03-15T05:38:53.110Z,9.45
2023-03-15T05:41:21.358Z,9.10
2023-03-15T05:43:48.626Z,5.82
2023-03-15T05:46:15.877Z,7.10
2023-03-15T05:48:43.214Z,12.60
2023-03-15T05:51:14.992Z,10.50
2023-03-15T05:56:32.824Z,7.03
2023-03-15T05:59:10.967Z,8.13
2023-03-15T06:04:31.736Z,11.25
2023-03-15T06:07:06.751Z,9.50
2023-03-15T06:15:24.445Z,9.65
2023-03-15T06:32:13.684Z,10.55
2023-03-15T06:44:04.819Z,14.63
2023-03-15T07:08:10.682Z,16.60
2023-03-15T08:00:38.741Z,18.08
2023-03-15T08:13:54.402Z,18.63
2023-03-15T08:26:28.197Z,17.30
2023-03-15T08:32:22.498Z,16.30
2023-03-15T08:38:27.061Z,16.67
2023-03-15T09:04:57.430Z,17.08
2023-03-15T09:07:37.129Z,14.82
2023-03-15T09:12:57.279Z,17.45
2023-03-15T09:15:27.481Z,11.98
2023-03-15T09:23:46.980Z,16.33
2023-03-15T09:26:13.925Z,15.35
2023-03-15T09:28:46.876Z,12.80
2023-03-15T09:31:17.483Z,11.00
2023-03-15T09:36:47.194Z,12.63
2023-03-15T09:39:18.467Z,10.30
2023-03-15T09:42:24.446Z,8.93
2023-03-15T09:45:17.777Z,8.65
2023-03-15T09:48:12.709Z,6.50
2023-03-15T09:51:40.458Z,8.05
2023-03-15T09:54:15.250Z,10.13
2023-03-15T10:00:18.276Z,5.97
2023-03-15T10:06:17.638Z,6.82
2023-03-15T10:19:12.897Z,5.68
2023-03-15T10:25:14.945Z,7.15
2023-03-15T10:30:38.324Z,5.85
2023-03-15T10:36:43.315Z,2.53
2023-03-15T10:48:37.226Z,2.60
2023-03-15T10:54:34.548Z,3.45
2023-03-15T10:57:28.340Z,2.88
2023-03-15T11:00:08.725Z,2.75
2023-03-15T11:02:40.864Z,4.68
2023-03-15T11:05:12.420Z,1.73
2023-03-15T11:07:57.555Z,2.40
2023-03-15T11:10:38.959Z,3.60
2023-03-15T11:13:24.873Z,2.20
2023-03-15T11:26:48.448Z,2.10
2023-03-15T11:29:23.280Z,1.45
2023-03-15T11:31:58.123Z,1.77
2023-03-15T11:35:04.378Z,3.53
2023-03-15T11:38:06.238Z,1.50
2023-03-15T11:50:32.669Z,3.38
2023-03-15T11:53:07.475Z,2.97
2023-03-15T11:55:38.001Z,2.20
2023-03-15T11:58:29.426Z,3.45
2023-03-15T12:01:03.685Z,2.75
2023-03-15T12:04:15.891Z,3.85
2023-03-15T12:06:44.261Z,3.20
2023-03-15T12:09:47.435Z,7.55
2023-03-15T12:12:29.358Z,3.80
2023-03-15T12:15:28.013Z,4.07
2023-03-15T12:20:45.968Z,2.50
2023-03-15T12:23:31.951Z,2.70
2023-03-15T12:26:07.442Z,3.50
2023-03-15T12:29:07.933Z,3.08
2023-03-15T12:32:23.670Z,3.85
2023-03-15T12:35:09.453Z,5.32
2023-03-15T12:37:43.752Z,2.78
2023-03-15T12:40:26.880Z,3.00
2023-03-15T12:43:04.927Z,2.80
2023-03-15T12:48:41.113Z,3.40
2023-03-15T12:51:16.822Z,2.78
2023-03-15T12:54:12.448Z,3.45
2023-03-15T12:56:50.897Z,4.78
2023-03-15T13:02:03.952Z,3.00
2023-03-15T13:07:51.944Z,2.65
2023-03-15T13:13:21.727Z,3.38
2023-03-15T13:16:31.269Z,4.03
2023-03-15T13:19:21.790Z,2.45
2023-03-15T13:22:34.808Z,6.85
2023-03-15T13:25:25.535Z,4.05
2023-03-15T13:27:56.621Z,4.07
2023-03-15T13:30:38.459Z,5.75
2023-03-15T13:33:31.849Z,3.58
2023-03-15T13:36:31.589Z,2.60
2023-03-15T13:39:01.818Z,4.45
2023-03-15T13:41:35.936Z,2.30
2023-03-15T13:44:31.159Z,2.78
2023-03-15T13:47:05.526Z,2.55
2023-03-15T13:55:08.791Z,3.28
2023-03-15T13:57:38.813Z,4.85
2023-03-15T14:00:20.227Z,2.90
2023-03-15T14:03:02.648Z,2.60
2023-03-15T14:08:52.724Z,1.52
2023-03-15T14:14:26.805Z,2.45
2023-03-15T14:17:05.771Z,3.00
2023-03-15T14:22:27.624Z,3.58
2023-03-15T14:24:58.251Z,3.40
2023-03-15T14:27:32.479Z,4.05
2023-03-15T14:30:45.834Z,2.85
2023-03-15T14:33:42.782Z,2.80
2023-03-15T14:36:37.005Z,3.30
2023-03-15T14:39:07.907Z,3.28
2023-03-15T14:41:44.126Z,3.33
2023-03-15T14:44:20.900Z,2.42
2023-03-15T14:52:53.849Z,2.55
2023-03-15T14:58:47.724Z,4.00
2023-03-15T15:07:55.112Z,2.58
2023-03-15T15:10:32.927Z,3.08
2023-03-15T15:13:07.305Z,3.08
2023-03-15T15:18:51.258Z,5.00
2023-03-15T15:21:51.445Z,2.88
2023-03-15T15:27:17.869Z,2.78
2023-03-15T15:33:01.923Z,3.97
2023-03-15T16:50:10.432Z,3.10
2023-03-15T17:43:14.240Z,3.72
2023-03-15T17:46:03.162Z,4.30
2023-03-15T17:48:34.620Z,5.65
2023-03-15T18:00:06.154Z,5.22
2023-03-15T18:02:40.719Z,3.03
2023-03-15T18:08:34.821Z,6.13
2023-03-15T18:20:41.681Z,22.27
2023-03-15T18:25:55.977Z,12.50
2023-03-15T18:31:09.581Z,9.75
2023-03-15T18:33:40.091Z,9.93
2023-03-15T18:36:16.979Z,10.82
2023-03-15T18:44:40.412Z,10.03
2023-03-15T18:47:12.848Z,9.23
2023-03-15T18:52:41.886Z,7.80
2023-03-15T18:55:20.731Z,9.85
2023-03-15T18:57:54.181Z,7.93
2023-03-15T19:00:40.311Z,8.38
2023-03-15T19:03:32.731Z,8.07
2023-03-15T19:06:12.112Z,8.43
2023-03-15T19:14:55.010Z,7.82
2023-03-15T19:17:27.512Z,6.43
2023-03-15T19:20:00.047Z,6.72
2023-03-15T19:22:30.614Z,12.10
2023-03-15T19:25:00.477Z,5.85
2023-03-15T19:27:37.678Z,9.40
2023-03-15T19:35:58.576Z,9.93
2023-03-15T19:47:32.640Z,8.70
2023-03-15T19:50:16.207Z,10.65
2023-03-15T19:58:18.391Z,9.30
2023-03-15T20:00:46.174Z,9.50
2023-03-15T20:11:59.476Z,10.90
2023-03-15T20:39:49.248Z,15.80
2023-03-15T20:42:21.945Z,14.93
2023-03-15T20:50:35.320Z,14.45
2023-03-15T21:16:08.006Z,18.27
2023-03-15T22:08:44.363Z,20.48
2023-03-15T22:10:20.748Z,14.68
2023-03-15T22:13:13.300Z,16.15
2023-03-15T22:15:51.425Z,17.60
2023-03-15T22:18:37.507Z,18.23
2023-03-15T22:21:08.799Z,15.55
2023-03-15T22:23:43.040Z,13.60
2023-03-15T22:26:18.842Z,13.00
2023-03-15T22:28:56.317Z,14.95
2023-03-15T22:31:32.784Z,16.40
2023-03-15T22:37:12.877Z,15.43
2023-03-15T22:42:37.270Z,14.80
2023-03-15T22:53:40.005Z,18.55
2023-03-15T22:56:08.791Z,15.07
2023-03-15T22:58:36.324Z,19.20
2023-03-15T23:06:49.210Z,20.95
2023-03-15T23:15:11.301Z,18.73
2023-03-15T23:17:47.178Z,16.95
2023-03-15T23:20:20.153Z,19.63
2023-03-15T23:22:48.225Z,16.98
2023-03-15T23:25:24.220Z,19.02
2023-03-15T23:27:59.923Z,16.75
2023-03-15T23:30:34.459Z,23.55
2023-03-15T23:33:13.954Z,18.13
2023-03-15T23:35:45.547Z,19.13
2023-03-15T23:38:14.472Z,16.63
2023-03-15T23:40:46.566Z,19.95
2023-03-15T23:43:18.947Z,23.38
2023-03-15T23:48:39.264Z,18.70
2023-03-15T23:51:16.171Z,19.08
2023-03-15T23:53:45.698Z,23.60
2023-03-15T23:56:23.313Z,17.83
